Airfield :
LOGIN :

Register | Disclaimer

   EN    FR    IT 

 










Legend :    VFR   Marginal VFR   IFR   Intensive IFR   Very Intensive IFR
Visi :
Ceiling :
>= 8 km
>= 3000ft
5 to 8 km
1000 to 3000 ft
1500m to 5 km
500 to 1000 ft
800 to 1500m
200 to 500 ft
< 800m
< 200 ft
Symbols :   Thunderstorms  Fog  Heavy snow  Heavy precipitations  Wind > 20 kt
SIGMETs :     Misc.  Thunderstorms  Icing  Turbulence  Mountain Waves  Volcanic Ashes







- Airport Elevation : 215 ft
- IATA code : ABZ
- Download approach charts


EGPD - Aberdeen / Dyce

CURRENT METAR :
  • 250150Z AUTO 31013KT 9999 OVC003 12/11 Q1021 NOSIG

EXPIRED METARs :
  • 250120Z AUTO 31012KT 9999 OVC004 12/11 Q1021 NOSIG
  • 250050Z AUTO 31010KT 9999 OVC003 12/11 Q1021 TEMPO 4000 BR
  • 250020Z AUTO 31013KT 8000 OVC003 12/11 Q1021 TEMPO 4000 BR
  • 242350Z AUTO 32014KT 7000 OVC003 12/11 Q1021 TEMPO 4000 BR
  • 242320Z AUTO 31015KT 9000 OVC003 12/11 Q1021 NOSIG

TAF TAF EGPD
Valid from the 25 at 00:00 until the 26 at 00:00 UTC


242303Z 2500/2524 34008KT 9999 BKN005
TEMPO 2500/2508 4000 BR BKN004
PROB30
TEMPO 2502/2506 1500 BKN001
BECMG 2508/2511 BKN012
TEMPO 2510/2518 SCT012
PROB40
TEMPO 2520/2524 8000 BKN006
No reported NOTAMs for that airfield.



MET'MAP, your aeronautical weather chart ! - Copyright ORBIFLY December 2007 - Disclaimer

ORBIFLY MET'MAP TEAM :

Programming & Development : Alexandra Zaïnal
Concept & Development : Baudouin d'Aumeries
Co-Development & Prog : Marc-Olivier Méhu
Technical & hardware support : Manuel Goepfert

Contact : metmap@orbifly.com




SOURCES & CREDITS :

   NOAA